Time;durP1;ratioP1;P1;durP2;ratioP2;P2;SDS_P1;SDS_P2;PMS_P1;PMS_P2;Temp;Humidity;BMP_temperature;BMP_pressure;BME280_temperature;BME280_humidity;BME280_pressure;Samples;Min_cycle;Max_cycle;Signal;HPM_P1;HPM_P2
2023/08/12 00:00:29;;;;;;;;;;;;;;;;;;1052756;28;19912;-77
2023/08/12 00:00:59;;;;;;;;;;;;;;;;;;1052528;28;19908;-77
2023/08/12 00:01:30;;;;;;;;;;;;;;;;;;1048575;28;19916;-76
2023/08/12 00:02:00;;;;;;;;;;;;;;;;;;1048279;28;20001;-76
2023/08/12 00:02:30;;;;;;;;;;;;;;;;;;1048594;28;19956;-76
2023/08/12 00:03:01;;;;;;;;;;;;;;;;;;1048381;28;20448;-76
2023/08/12 00:03:31;;;;;;;;;;;;;;;;;;1052656;28;20371;-76
2023/08/12 00:04:01;;;;;;;;;;;;;;;;;;1048301;28;19948;-77
2023/08/12 00:04:32;;;;;;;;;;;;;;;;;;1048545;28;19912;-77
2023/08/12 00:05:03;;;;;;;;;;;;;;;;;;1048408;28;20431;-77
2023/08/12 00:05:35;;;;;;;;;;;;;;;;;;1048451;28;19912;-77
2023/08/12 00:06:05;;;;;;;;;;;;;;;;;;1048388;28;19908;-76
2023/08/12 00:06:35;;;;;;;;;;;;;;;;;;1048606;28;19920;-76
2023/08/12 00:07:06;;;;;;;;;;;;;;;;;;1048337;28;20015;-76
2023/08/12 00:07:36;;;;;;;;;;;;;;;;;;1048450;28;19913;-76
2023/08/12 00:08:06;;;;;;;;;;;;;;;;;;1044207;28;19915;-78
2023/08/12 00:08:36;;;;;;;;;;;;;;;;;;1044490;28;20323;-78
2023/08/12 00:09:07;;;;;;;;;;;;;;;;;;1044503;28;20396;-78
2023/08/12 00:09:38;;;;;;;;;;;;;;;;;;1048695;28;19912;-78
2023/08/12 00:10:08;;;;;;;;;;;;;;;;;;1048461;28;19908;-78
2023/08/12 00:10:38;;;;;;;;;;;;;;;;;;1044381;28;19919;-78
2023/08/12 00:11:09;;;;;;;;;;;;;;;;;;1044485;28;20050;-78
2023/08/12 00:11:39;;;;;;;;;;;;;;;;;;1044570;28;19916;-78
2023/08/12 00:12:09;;;;;;;;;;;;;;;;;;1048536;28;19951;-78
2023/08/12 00:12:39;;;;;;;;;;;;;;;;;;1048655;28;19923;-78
2023/08/12 00:13:09;;;;;;;;;;;;;;;;;;1048586;28;19920;-78
2023/08/12 00:13:40;;;;;;;;;;;;;;;;;;1052647;28;19919;-78
2023/08/12 00:14:10;;;;;;;;;;;;;;;;;;1052735;28;19916;-78
2023/08/12 00:14:40;;;;;;;;;;;;;;;;;;1048476;28;19908;-78
2023/08/12 00:15:10;;;;;;;;;;;;;;;;;;1048650;28;20131;-78
2023/08/12 00:15:41;;;;;;;;;;;;;;;;;;1048676;28;19951;-78
2023/08/12 00:16:11;;;;;;;;;;;;;;;;;;1048426;28;19917;-78
2023/08/12 00:16:42;;;;;;;;;;;;;;;;;;1052715;28;19908;-78
2023/08/12 00:17:12;;;;;;;;;;;;;;;;;;1052735;28;20042;-78
2023/08/12 00:17:42;;;;;;;;;;;;;;;;;;1052705;28;19916;-78
2023/08/12 00:18:12;;;;;;;;;;;;;;;;;;1052711;28;20042;-79
2023/08/12 00:18:43;;;;;;;;;;;;;;;;;;1048877;28;19909;-78
2023/08/12 00:19:13;;;;;;;;;;;;;;;;;;1048903;28;20368;-78
2023/08/12 00:19:43;;;;;;;;;;;;;;;;;;1052641;28;20360;-78
2023/08/12 00:20:14;;;;;;;;;;;;;;;;;;1052660;28;20311;-79
2023/08/12 00:20:44;;;;;;;;;;;;;;;;;;1050373;28;19908;-78
2023/08/12 00:21:14;;;;;;;;;;;;;;;;;;1044322;28;19916;-78
2023/08/12 00:21:45;;;;;;;;;;;;;;;;;;1044444;28;19909;-78
2023/08/12 00:22:15;;;;;;;;;;;;;;;;;;1044291;28;20008;-78
2023/08/12 00:22:45;;;;;;;;;;;;;;;;;;1048481;28;19914;-78
2023/08/12 00:23:15;;;;;;;;;;;;;;;;;;1048544;28;19921;-78
2023/08/12 00:23:47;;;;;;;;;;;;;;;;;;1048708;28;19915;-78
2023/08/12 00:24:17;;;;;;;;;;;;;;;;;;1048468;28;19909;-78
2023/08/12 00:24:48;;;;;;;;;;;;;;;;;;1048484;28;19908;-78
2023/08/12 00:25:18;;;;;;;;;;;;;;;;;;1048429;28;19909;-78
2023/08/12 00:25:48;;;;;;;;;;;;;;;;;;1048539;28;20429;-78
2023/08/12 00:26:18;;;;;;;;;;;;;;;;;;1048562;28;20412;-78
2023/08/12 00:26:49;;;;;;;;;;;;;;;;;;1048394;28;19909;-78
2023/08/12 00:27:19;;;;;;;;;;;;;;;;;;1044223;28;19912;-78
2023/08/12 00:27:49;;;;;;;;;;;;;;;;;;1048601;28;20303;-78
2023/08/12 00:28:20;;;;;;;;;;;;;;;;;;1044310;28;19999;-78
2023/08/12 00:28:51;;;;;;;;;;;;;;;;;;1044428;28;19955;-78
2023/08/12 00:29:21;;;;;;;;;;;;;;;;;;1048530;28;20011;-78
2023/08/12 00:29:51;;;;;;;;;;;;;;;;;;1044509;28;19908;-78
2023/08/12 00:30:21;;;;;;;;;;;;;;;;;;1048596;28;19909;-78
2023/08/12 00:30:52;;;;;;;;;;;;;;;;;;1048536;28;19916;-78
2023/08/12 00:31:22;;;;;;;;;;;;;;;;;;1048653;28;19917;-78
2023/08/12 00:31:52;;;;;;;;;;;;;;;;;;1048407;28;20331;-78
2023/08/12 00:32:22;;;;;;;;;;;;;;;;;;1048344;28;20013;-78
2023/08/12 00:32:53;;;;;;;;;;;;;;;;;;1048393;28;20396;-78
2023/08/12 00:33:23;;;;;;;;;;;;;;;;;;1044383;28;20017;-78
2023/08/12 00:33:53;;;;;;;;;;;;;;;;;;1044329;28;20341;-77
2023/08/12 00:34:23;;;;;;;;;;;;;;;;;;1040182;28;20281;-76
2023/08/12 00:34:54;;;;;;;;;;;;;;;;;;1044148;28;19939;-76
2023/08/12 00:35:24;;;;;;;;;;;;;;;;;;1048487;28;19908;-76
2023/08/12 00:35:54;;;;;;;;;;;;;;;;;;1048300;28;19909;-76
2023/08/12 00:36:24;;;;;;;;;;;;;;;;;;1048334;28;19916;-76
2023/08/12 00:36:55;;;;;;;;;;;;;;;;;;1044017;28;19931;-76
2023/08/12 00:37:25;;;;;;;;;;;;;;;;;;1044297;28;19913;-76
2023/08/12 00:37:55;;;;;;;;;;;;;;;;;;1044165;28;19916;-77
2023/08/12 00:38:25;;;;;;;;;;;;;;;;;;1044303;28;19908;-78
2023/08/12 00:38:56;;;;;;;;;;;;;;;;;;1048547;28;19908;-79
2023/08/12 00:39:26;;;;;;;;;;;;;;;;;;1048690;28;19990;-79
2023/08/12 00:39:56;;;;;;;;;;;;;;;;;;1048288;28;19952;-79
2023/08/12 00:40:26;;;;;;;;;;;;;;;;;;1048490;28;19909;-79
2023/08/12 00:40:58;;;;;;;;;;;;;;;;;;1044250;28;19908;-78
2023/08/12 00:41:28;;;;;;;;;;;;;;;;;;1044506;28;19908;-78
2023/08/12 00:41:58;;;;;;;;;;;;;;;;;;1044271;28;19909;-78
2023/08/12 00:42:28;;;;;;;;;;;;;;;;;;1048697;28;20026;-78
2023/08/12 00:42:58;;;;;;;;;;;;;;;;;;1052571;28;19908;-79
2023/08/12 00:43:29;;;;;;;;;;;;;;;;;;1048630;28;20357;-78
2023/08/12 00:43:59;;;;;;;;;;;;;;;;;;1044148;28;20288;-78
2023/08/12 00:44:29;;;;;;;;;;;;;;;;;;1044349;28;19909;-78
2023/08/12 00:44:59;;;;;;;;;;;;;;;;;;1044177;28;19976;-77
2023/08/12 00:45:30;;;;;;;;;;;;;;;;;;1048628;28;20014;-78
2023/08/12 00:46:00;;;;;;;;;;;;;;;;;;1048432;28;19915;-78
2023/08/12 00:46:30;;;;;;;;;;;;;;;;;;1048691;28;19916;-77
2023/08/12 00:47:01;;;;;;;;;;;;;;;;;;1052403;28;19908;-77
2023/08/12 00:47:31;;;;;;;;;;;;;;;;;;1048775;28;20006;-77
2023/08/12 00:48:01;;;;;;;;;;;;;;;;;;1052316;28;19916;-76
2023/08/12 00:48:31;;;;;;;;;;;;;;;;;;1048408;28;19919;-76
2023/08/12 00:49:01;;;;;;;;;;;;;;;;;;1048282;28;19959;-77
2023/08/12 00:49:32;;;;;;;;;;;;;;;;;;1044286;28;19912;-77
2023/08/12 00:50:02;;;;;;;;;;;;;;;;;;1043986;28;19916;-77
2023/08/12 00:50:33;;;;;;;;;;;;;;;;;;1048497;28;20335;-77
2023/08/12 00:51:03;;;;;;;;;;;;;;;;;;1048288;28;20047;-77
2023/08/12 00:51:33;;;;;;;;;;;;;;;;;;1049086;28;19920;-77
2023/08/12 00:52:04;;;;;;;;;;;;;;;;;;1049196;28;19943;-77
2023/08/12 00:52:34;;;;;;;;;;;;;;;;;;1053276;28;19959;-77
2023/08/12 00:53:05;;;;;;;;;;;;;;;;;;1053196;28;19908;-77
2023/08/12 00:53:36;;;;;;;;;;;;;;;;;;1056287;22;20427;-76
2023/08/12 00:54:06;;;;;;;;;;;;;;;;;;1048989;28;20010;-76
2023/08/12 00:54:36;;;;;;;;;;;;;;;;;;1049231;28;20529;-76
2023/08/12 00:55:07;;;;;;;;;;;;;;;;;;1049026;28;19909;-76
2023/08/12 00:55:37;;;;;;;;;;;;;;;;;;1049459;28;19920;-76
2023/08/12 00:56:07;;;;;;;;;;;;;;;;;;1049096;28;19915;-77
2023/08/12 00:56:37;;;;;;;;;;;;;;;;;;1049534;28;19913;-77
2023/08/12 00:57:07;;;;;;;;;;;;;;;;;;1049309;28;19909;-77
2023/08/12 00:57:38;;;;;;;;;;;;;;;;;;1049479;28;19912;-77
2023/08/12 00:58:08;;;;;;;;;;;;;;;;;;1049366;28;19908;-77
2023/08/12 00:58:38;;;;;;;;;;;;;;;;;;1049442;28;19912;-77
2023/08/12 00:59:09;;;;;;;;;;;;;;;;;;1049331;28;19912;-77
2023/08/12 00:59:39;;;;;;;;;;;;;;;;;;1049465;28;19912;-77
2023/08/12 01:00:09;;;;;;;;;;;;;;;;;;1048909;28;19916;-77
2023/08/12 01:00:39;;;;;;;;;;;;;;;;;;1049104;28;19924;-77
2023/08/12 01:01:10;;;;;;;;;;;;;;;;;;1049000;28;19923;-77
2023/08/12 01:01:41;;;;;;;;;;;;;;;;;;1049062;28;20027;-76
2023/08/12 01:02:11;;;;;;;;;;;;;;;;;;1048956;28;20017;-76
2023/08/12 01:02:44;;;;;;;;;;;;;;;;;;1049095;28;19997;-76
2023/08/12 01:03:14;;;;;;;;;;;;;;;;;;1049361;28;19955;-77
2023/08/12 01:03:44;;;;;;;;;;;;;;;;;;1049413;28;19931;-77
2023/08/12 01:04:14;;;;;;;;;;;;;;;;;;1049338;28;19908;-77
2023/08/12 01:04:44;;;;;;;;;;;;;;;;;;1048931;28;20284;-77
2023/08/12 01:05:17;;;;;;;;;;;;;;;;;;1048983;28;19912;-77
2023/08/12 01:05:48;;;;;;;;;;;;;;;;;;1048983;28;19912;-77
2023/08/12 01:06:18;;;;;;;;;;;;;;;;;;1049012;28;20392;-77
2023/08/12 01:06:48;;;;;;;;;;;;;;;;;;1049117;28;19908;-77
2023/08/12 01:07:18;;;;;;;;;;;;;;;;;;1049009;28;20357;-77
2023/08/12 01:07:49;;;;;;;;;;;;;;;;;;1049379;28;19905;-77
2023/08/12 01:08:19;;;;;;;;;;;;;;;;;;1049444;28;19954;-79
2023/08/12 01:08:50;;;;;;;;;;;;;;;;;;1049077;28;19995;-79
2023/08/12 01:09:20;;;;;;;;;;;;;;;;;;1049135;28;19923;-79
2023/08/12 01:09:50;;;;;;;;;;;;;;;;;;1049188;28;19916;-79
2023/08/12 01:10:20;;;;;;;;;;;;;;;;;;1049186;28;20489;-79
2023/08/12 01:10:51;;;;;;;;;;;;;;;;;;1049311;28;19909;-79
2023/08/12 01:11:21;;;;;;;;;;;;;;;;;;1049078;28;20376;-79
2023/08/12 01:11:51;;;;;;;;;;;;;;;;;;1049256;28;20003;-79
2023/08/12 01:12:21;;;;;;;;;;;;;;;;;;1044956;28;19919;-79
2023/08/12 01:12:53;;;;;;;;;;;;;;;;;;1040683;28;19948;-77
2023/08/12 01:13:24;;;;;;;;;;;;;;;;;;1045087;28;19963;-77
2023/08/12 01:13:54;;;;;;;;;;;;;;;;;;1044972;28;19915;-77
2023/08/12 01:14:25;;;;;;;;;;;;;;;;;;1045171;28;19915;-77
2023/08/12 01:14:55;;;;;;;;;;;;;;;;;;1048948;28;19909;-77
2023/08/12 01:15:26;;;;;;;;;;;;;;;;;;1049175;28;19909;-77
2023/08/12 01:15:56;;;;;;;;;;;;;;;;;;1044798;28;19974;-77
2023/08/12 01:16:26;;;;;;;;;;;;;;;;;;1049140;28;19924;-78
2023/08/12 01:16:56;;;;;;;;;;;;;;;;;;1049101;28;20378;-78
2023/08/12 01:17:27;;;;;;;;;;;;;;;;;;1044889;28;20246;-78
2023/08/12 01:17:57;;;;;;;;;;;;;;;;;;1049062;28;20280;-78
2023/08/12 01:18:27;;;;;;;;;;;;;;;;;;1049181;28;19999;-78
2023/08/12 01:18:57;;;;;;;;;;;;;;;;;;1044886;28;19909;-78
2023/08/12 01:19:28;;;;;;;;;;;;;;;;;;1049224;28;20003;-78
2023/08/12 01:19:58;;;;;;;;;;;;;;;;;;1048902;28;19953;-77
2023/08/12 01:20:30;;;;;;;;;;;;;;;;;;1049230;28;20002;-78
2023/08/12 01:21:03;;;;;;;;;;;;;;;;;;1048887;28;19916;-78
2023/08/12 01:21:33;;;;;;;;;;;;;;;;;;1045159;28;19912;-78
2023/08/12 01:22:04;;;;;;;;;;;;;;;;;;1044653;28;19909;-77
2023/08/12 01:22:36;;;;;;;;;;;;;;;;;;1044878;28;19913;-77
2023/08/12 01:23:06;;;;;;;;;;;;;;;;;;1044994;28;19962;-77
2023/08/12 01:23:37;;;;;;;;;;;;;;;;;;1044887;28;20029;-77
2023/08/12 01:24:07;;;;;;;;;;;;;;;;;;1045060;28;20396;-77
2023/08/12 01:24:37;;;;;;;;;;;;;;;;;;1044922;28;19913;-77
2023/08/12 01:25:07;;;;;;;;;;;;;;;;;;1044645;28;19909;-77
2023/08/12 01:25:38;;;;;;;;;;;;;;;;;;1048990;28;19959;-77
2023/08/12 01:26:08;;;;;;;;;;;;;;;;;;1044768;28;19915;-77
2023/08/12 01:26:38;;;;;;;;;;;;;;;;;;1044967;28;19913;-77
2023/08/12 01:27:09;;;;;;;;;;;;;;;;;;1048863;28;20359;-77
2023/08/12 01:27:39;;;;;;;;;;;;;;;;;;1044752;28;20284;-77
2023/08/12 01:28:09;;;;;;;;;;;;;;;;;;1048932;28;19916;-77
2023/08/12 01:28:39;;;;;;;;;;;;;;;;;;1049023;28;19923;-77
2023/08/12 01:29:10;;;;;;;;;;;;;;;;;;1044747;28;19917;-77
2023/08/12 01:29:41;;;;;;;;;;;;;;;;;;1044875;28;19913;-77
2023/08/12 01:30:11;;;;;;;;;;;;;;;;;;1048981;28;19909;-77
2023/08/12 01:30:41;;;;;;;;;;;;;;;;;;1048973;28;19908;-77
2023/08/12 01:31:12;;;;;;;;;;;;;;;;;;1048787;28;19912;-77
2023/08/12 01:31:42;;;;;;;;;;;;;;;;;;1044844;28;19958;-77
2023/08/12 01:32:12;;;;;;;;;;;;;;;;;;1044812;28;19948;-77
2023/08/12 01:32:43;;;;;;;;;;;;;;;;;;1044847;28;19999;-76
2023/08/12 01:33:13;;;;;;;;;;;;;;;;;;1048931;28;19908;-77
2023/08/12 01:33:43;;;;;;;;;;;;;;;;;;1049277;28;19916;-77
2023/08/12 01:34:13;;;;;;;;;;;;;;;;;;1049232;28;19915;-77
2023/08/12 01:34:44;;;;;;;;;;;;;;;;;;1048813;28;19930;-77
2023/08/12 01:35:14;;;;;;;;;;;;;;;;;;1048938;28;19936;-77
2023/08/12 01:35:44;;;;;;;;;;;;;;;;;;1044737;28;20270;-77
2023/08/12 01:36:14;;;;;;;;;;;;;;;;;;1044677;28;19909;-77
2023/08/12 01:36:44;;;;;;;;;;;;;;;;;;1049006;28;19908;-77
2023/08/12 01:37:15;;;;;;;;;;;;;;;;;;1048876;28;19908;-77
2023/08/12 01:37:45;;;;;;;;;;;;;;;;;;1049247;28;19958;-77
2023/08/12 01:38:15;;;;;;;;;;;;;;;;;;1048810;28;19908;-77
2023/08/12 01:38:48;;;;;;;;;;;;;;;;;;1044775;28;19959;-77
2023/08/12 01:39:19;;;;;;;;;;;;;;;;;;1044653;28;20007;-77
2023/08/12 01:39:49;;;;;;;;;;;;;;;;;;1045310;28;19909;-77
2023/08/12 01:40:19;;;;;;;;;;;;;;;;;;1048919;28;19920;-77
2023/08/12 01:40:50;;;;;;;;;;;;;;;;;;1048958;28;19916;-77
2023/08/12 01:41:20;;;;;;;;;;;;;;;;;;1049184;28;19916;-77
2023/08/12 01:41:50;;;;;;;;;;;;;;;;;;1049310;28;19916;-77
2023/08/12 01:42:20;;;;;;;;;;;;;;;;;;1049066;28;19913;-77
2023/08/12 01:42:50;;;;;;;;;;;;;;;;;;1049257;28;19958;-77
2023/08/12 01:43:21;;;;;;;;;;;;;;;;;;1049209;28;19916;-77
2023/08/12 01:43:51;;;;;;;;;;;;;;;;;;1048773;28;20375;-77
2023/08/12 01:44:21;;;;;;;;;;;;;;;;;;1044730;28;20276;-77
2023/08/12 01:44:51;;;;;;;;;;;;;;;;;;1044621;28;20007;-77
2023/08/12 01:45:22;;;;;;;;;;;;;;;;;;1044797;28;19958;-76
2023/08/12 01:45:52;;;;;;;;;;;;;;;;;;1048812;28;19909;-76
2023/08/12 01:46:22;;;;;;;;;;;;;;;;;;1044763;28;20074;-77
2023/08/12 01:46:52;;;;;;;;;;;;;;;;;;1044842;28;19915;-79
2023/08/12 01:47:23;;;;;;;;;;;;;;;;;;1043971;23;20435;-79
2023/08/12 01:47:53;;;;;;;;;;;;;;;;;;1064974;23;19999;-79
2023/08/12 01:48:23;;;;;;;;;;;;;;;;;;1050721;22;19921;-77
2023/08/12 01:48:53;;;;;;;;;;;;;;;;;;1044660;28;19950;-77
2023/08/12 01:49:24;;;;;;;;;;;;;;;;;;1049348;28;19909;-77
2023/08/12 01:49:54;;;;;;;;;;;;;;;;;;1048984;28;19915;-77
2023/08/12 01:50:25;;;;;;;;;;;;;;;;;;1049308;28;20386;-77
2023/08/12 01:50:55;;;;;;;;;;;;;;;;;;1049062;28;20537;-77
2023/08/12 01:51:26;;;;;;;;;;;;;;;;;;1049412;28;20371;-77
2023/08/12 01:51:56;;;;;;;;;;;;;;;;;;1048701;28;19963;-77
2023/08/12 01:52:26;;;;;;;;;;;;;;;;;;1056184;22;19935;-76
2023/08/12 01:52:57;;;;;;;;;;;;;;;;;;1048773;28;19913;-77
2023/08/12 01:53:28;;;;;;;;;;;;;;;;;;1048942;28;19908;-77
2023/08/12 01:53:58;;;;;;;;;;;;;;;;;;1049017;28;19950;-77
2023/08/12 01:54:33;;;;;;;;;;;;;;;;;;1049280;28;19908;-76
2023/08/12 01:55:03;;;;;;;;;;;;;;;;;;1048973;28;20461;-77
2023/08/12 01:55:34;;;;;;;;;;;;;;;;;;1049180;28;19919;-76
2023/08/12 01:56:04;;;;;;;;;;;;;;;;;;1048966;28;19908;-77
2023/08/12 01:56:34;;;;;;;;;;;;;;;;;;1048860;28;20461;-77
2023/08/12 01:57:05;;;;;;;;;;;;;;;;;;1048692;28;20374;-75
2023/08/12 01:57:35;;;;;;;;;;;;;;;;;;1044697;28;20019;-76
2023/08/12 01:58:05;;;;;;;;;;;;;;;;;;1044634;28;20403;-77
2023/08/12 01:58:36;;;;;;;;;;;;;;;;;;1044906;28;20318;-77
2023/08/12 01:59:06;;;;;;;;;;;;;;;;;;1044465;28;19908;-75
2023/08/12 01:59:36;;;;;;;;;;;;;;;;;;1044700;28;19912;-76
2023/08/12 02:00:06;;;;;;;;;;;;;;;;;;1044630;28;19916;-77
2023/08/12 02:00:36;;;;;;;;;;;;;;;;;;1044855;28;19920;-77
2023/08/12 02:01:07;;;;;;;;;;;;;;;;;;1044645;28;19908;-77
2023/08/12 02:01:37;;;;;;;;;;;;;;;;;;1049278;28;19912;-77
2023/08/12 02:02:07;;;;;;;;;;;;;;;;;;1048524;28;19908;-77
2023/08/12 02:02:37;;;;;;;;;;;;;;;;;;1049209;28;19919;-77
2023/08/12 02:03:08;;;;;;;;;;;;;;;;;;1048635;28;20023;-78
2023/08/12 02:03:38;;;;;;;;;;;;;;;;;;1049034;28;19964;-78
2023/08/12 02:04:09;;;;;;;;;;;;;;;;;;1044531;28;19908;-77
2023/08/12 02:04:39;;;;;;;;;;;;;;;;;;1044817;28;19913;-77
2023/08/12 02:05:09;;;;;;;;;;;;;;;;;;1044647;28;19909;-77
2023/08/12 02:05:40;;;;;;;;;;;;;;;;;;1044890;28;19912;-79
2023/08/12 02:06:11;;;;;;;;;;;;;;;;;;1044912;28;19915;-79
2023/08/12 02:06:41;;;;;;;;;;;;;;;;;;1044711;28;19909;-78
2023/08/12 02:07:11;;;;;;;;;;;;;;;;;;1044689;28;19909;-77
2023/08/12 02:07:41;;;;;;;;;;;;;;;;;;1044724;28;19915;-77
2023/08/12 02:08:12;;;;;;;;;;;;;;;;;;1044514;28;19908;-77
2023/08/12 02:08:42;;;;;;;;;;;;;;;;;;1040485;28;20078;-76
2023/08/12 02:09:12;;;;;;;;;;;;;;;;;;1040540;28;19910;-77
2023/08/12 02:09:42;;;;;;;;;;;;;;;;;;1040570;28;20487;-77
2023/08/12 02:10:14;;;;;;;;;;;;;;;;;;1044621;28;19955;-77
2023/08/12 02:10:44;;;;;;;;;;;;;;;;;;1049107;28;19909;-76
2023/08/12 02:11:15;;;;;;;;;;;;;;;;;;1048612;28;19908;-76
2023/08/12 02:11:45;;;;;;;;;;;;;;;;;;1048821;28;19908;-76
2023/08/12 02:12:15;;;;;;;;;;;;;;;;;;1048670;28;19939;-77
2023/08/12 02:12:45;;;;;;;;;;;;;;;;;;1048748;28;19916;-76
2023/08/12 02:13:15;;;;;;;;;;;;;;;;;;1049095;28;19908;-76
2023/08/12 02:13:46;;;;;;;;;;;;;;;;;;1044659;28;19908;-77
2023/08/12 02:14:16;;;;;;;;;;;;;;;;;;1044520;28;20389;-77
2023/08/12 02:14:46;;;;;;;;;;;;;;;;;;1044724;28;20003;-78
2023/08/12 02:15:16;;;;;;;;;;;;;;;;;;1044577;28;19909;-78
2023/08/12 02:15:47;;;;;;;;;;;;;;;;;;1044748;28;19991;-78
2023/08/12 02:16:17;;;;;;;;;;;;;;;;;;1044582;28;19932;-78
2023/08/12 02:16:47;;;;;;;;;;;;;;;;;;1044718;28;19909;-77
2023/08/12 02:17:17;;;;;;;;;;;;;;;;;;1048739;28;19985;-78
2023/08/12 02:17:48;;;;;;;;;;;;;;;;;;1044691;28;19913;-78
2023/08/12 02:18:18;;;;;;;;;;;;;;;;;;1044571;28;19909;-76
2023/08/12 02:18:48;;;;;;;;;;;;;;;;;;1044633;28;20453;-76
2023/08/12 02:19:19;;;;;;;;;;;;;;;;;;1044658;28;19909;-76
2023/08/12 02:19:49;;;;;;;;;;;;;;;;;;1044714;28;19908;-76
2023/08/12 02:20:19;;;;;;;;;;;;;;;;;;1044473;28;19916;-76
2023/08/12 02:20:50;;;;;;;;;;;;;;;;;;1044493;28;20388;-76
2023/08/12 02:21:20;;;;;;;;;;;;;;;;;;1044674;28;20296;-75
2023/08/12 02:21:50;;;;;;;;;;;;;;;;;;1044554;28;20011;-76
2023/08/12 02:22:20;;;;;;;;;;;;;;;;;;1040378;28;20469;-78
2023/08/12 02:22:51;;;;;;;;;;;;;;;;;;1040463;28;19928;-76
2023/08/12 02:23:21;;;;;;;;;;;;;;;;;;1044525;28;19908;-77
2023/08/12 02:23:51;;;;;;;;;;;;;;;;;;1048822;28;19908;-77
2023/08/12 02:24:21;;;;;;;;;;;;;;;;;;1048789;28;19991;-77
2023/08/12 02:24:52;;;;;;;;;;;;;;;;;;1048704;28;19975;-77
2023/08/12 02:25:22;;;;;;;;;;;;;;;;;;1044738;28;19908;-78
2023/08/12 02:25:54;;;;;;;;;;;;;;;;;;1044939;28;19932;-77
2023/08/12 02:26:56;;;;;;;;;;;;;;;;;;1038819;28;20037;-76
2023/08/12 02:27:26;;;;;;;;;;;;;;;;;;1040528;28;20377;-75
2023/08/12 02:27:56;;;;;;;;;;;;;;;;;;1040641;28;20277;-76
2023/08/12 02:28:27;;;;;;;;;;;;;;;;;;1044962;28;19932;-75
2023/08/12 02:28:57;;;;;;;;;;;;;;;;;;1044870;28;20008;-75
2023/08/12 02:29:27;;;;;;;;;;;;;;;;;;1044960;28;19915;-77
2023/08/12 02:29:57;;;;;;;;;;;;;;;;;;1044772;28;20007;-75
2023/08/12 02:30:28;;;;;;;;;;;;;;;;;;1045038;28;19956;-76
2023/08/12 02:30:58;;;;;;;;;;;;;;;;;;1044805;28;20003;-77
2023/08/12 02:31:28;;;;;;;;;;;;;;;;;;1040508;28;20328;-76
2023/08/12 02:31:58;;;;;;;;;;;;;;;;;;1040333;28;20088;-76
2023/08/12 02:32:28;;;;;;;;;;;;;;;;;;1040597;28;19916;-77
2023/08/12 02:33:39;;;;;;;;;;;;;;;;;;1042934;28;19929;-78
2023/08/12 02:34:09;;;;;;;;;;;;;;;;;;1044596;28;19908;-78
2023/08/12 02:34:40;;;;;;;;;;;;;;;;;;1042010;28;19913;-74
2023/08/12 02:35:10;;;;;;;;;;;;;;;;;;1044493;28;20007;-77
2023/08/12 02:35:40;;;;;;;;;;;;;;;;;;1044622;28;19908;-75
2023/08/12 02:36:11;;;;;;;;;;;;;;;;;;1044432;28;19955;-76
2023/08/12 02:36:41;;;;;;;;;;;;;;;;;;1044566;28;19909;-77
2023/08/12 02:37:12;;;;;;;;;;;;;;;;;;1044447;28;19916;-77
2023/08/12 02:37:42;;;;;;;;;;;;;;;;;;1044530;28;19931;-76
2023/08/12 02:38:13;;;;;;;;;;;;;;;;;;1044675;28;20454;-81
2023/08/12 02:38:43;;;;;;;;;;;;;;;;;;1049050;28;20409;-81
2023/08/12 02:39:13;;;;;;;;;;;;;;;;;;1049059;28;19909;-78
2023/08/12 02:39:44;;;;;;;;;;;;;;;;;;1048990;28;19908;-78
2023/08/12 02:40:14;;;;;;;;;;;;;;;;;;1049008;28;20357;-78
2023/08/12 02:40:44;;;;;;;;;;;;;;;;;;1049078;28;20360;-77
2023/08/12 02:41:14;;;;;;;;;;;;;;;;;;1048931;28;19912;-79
2023/08/12 02:41:45;;;;;;;;;;;;;;;;;;1044510;28;19908;-78
2023/08/12 02:42:15;;;;;;;;;;;;;;;;;;1040373;28;19909;-79
2023/08/12 02:42:45;;;;;;;;;;;;;;;;;;1040481;28;20255;-77
2023/08/12 02:43:15;;;;;;;;;;;;;;;;;;1040308;28;19920;-78
2023/08/12 02:43:45;;;;;;;;;;;;;;;;;;1044543;28;19916;-78
2023/08/12 02:44:16;;;;;;;;;;;;;;;;;;1044613;28;19909;-78
2023/08/12 02:44:46;;;;;;;;;;;;;;;;;;1044665;28;19909;-79
2023/08/12 02:45:16;;;;;;;;;;;;;;;;;;1049049;28;19939;-80
2023/08/12 02:45:46;;;;;;;;;;;;;;;;;;1049131;28;19917;-78
2023/08/12 02:46:18;;;;;;;;;;;;;;;;;;1048986;28;19916;-76
2023/08/12 02:46:48;;;;;;;;;;;;;;;;;;1044469;28;19908;-75
2023/08/12 02:47:18;;;;;;;;;;;;;;;;;;1044436;28;20011;-76
2023/08/12 02:47:48;;;;;;;;;;;;;;;;;;1044575;28;19915;-77
2023/08/12 02:48:19;;;;;;;;;;;;;;;;;;1040282;28;19917;-77
2023/08/12 02:48:49;;;;;;;;;;;;;;;;;;1044665;28;20242;-76
2023/08/12 02:49:19;;;;;;;;;;;;;;;;;;1044547;28;20007;-78
2023/08/12 02:49:49;;;;;;;;;;;;;;;;;;1044601;28;20023;-79
2023/08/12 02:50:20;;;;;;;;;;;;;;;;;;1048911;28;19961;-76
2023/08/12 02:50:50;;;;;;;;;;;;;;;;;;1044431;28;19916;-76
2023/08/12 02:51:20;;;;;;;;;;;;;;;;;;1044477;28;19916;-77
2023/08/12 02:51:50;;;;;;;;;;;;;;;;;;1044626;28;19916;-77
2023/08/12 02:52:20;;;;;;;;;;;;;;;;;;1040233;28;19999;-77
2023/08/12 02:52:51;;;;;;;;;;;;;;;;;;1044493;28;19908;-79
2023/08/12 02:53:21;;;;;;;;;;;;;;;;;;1059576;22;19993;-78
2023/08/12 02:53:51;;;;;;;;;;;;;;;;;;1044298;28;19917;-79
2023/08/12 02:54:21;;;;;;;;;;;;;;;;;;1044602;28;19909;-79
2023/08/12 02:54:52;;;;;;;;;;;;;;;;;;1048858;28;20398;-75
2023/08/12 02:55:22;;;;;;;;;;;;;;;;;;1044420;28;19909;-79
2023/08/12 02:55:52;;;;;;;;;;;;;;;;;;1044548;28;20393;-77
2023/08/12 02:56:22;;;;;;;;;;;;;;;;;;1044513;28;20015;-78
2023/08/12 02:56:53;;;;;;;;;;;;;;;;;;1044464;28;19917;-79
2023/08/12 02:57:23;;;;;;;;;;;;;;;;;;1048958;28;20005;-77
2023/08/12 02:57:53;;;;;;;;;;;;;;;;;;1048849;28;19947;-76
2023/08/12 02:58:23;;;;;;;;;;;;;;;;;;1049034;28;19932;-78
2023/08/12 02:58:54;;;;;;;;;;;;;;;;;;1044264;28;19959;-78
2023/08/12 02:59:25;;;;;;;;;;;;;;;;;;1044572;28;19909;-77
2023/08/12 02:59:55;;;;;;;;;;;;;;;;;;1044400;28;19916;-78
2023/08/12 03:00:26;;;;;;;;;;;;;;;;;;1044530;28;19931;-77
2023/08/12 03:00:56;;;;;;;;;;;;;;;;;;1044410;28;19956;-79
2023/08/12 03:01:27;;;;;;;;;;;;;;;;;;1044501;28;19909;-77
2023/08/12 03:01:57;;;;;;;;;;;;;;;;;;1044404;28;20253;-76
2023/08/12 03:02:27;;;;;;;;;;;;;;;;;;1048651;28;19959;-78
2023/08/12 03:02:58;;;;;;;;;;;;;;;;;;1044323;28;19909;-78
2023/08/12 03:03:28;;;;;;;;;;;;;;;;;;1044565;28;19940;-77
2023/08/12 03:03:58;;;;;;;;;;;;;;;;;;1044375;28;19909;-76
2023/08/12 03:04:28;;;;;;;;;;;;;;;;;;1044660;28;20087;-76
2023/08/12 03:04:59;;;;;;;;;;;;;;;;;;1044458;28;20003;-80
2023/08/12 03:05:29;;;;;;;;;;;;;;;;;;1040430;28;19909;-78
2023/08/12 03:05:59;;;;;;;;;;;;;;;;;;1044346;28;20288;-78
2023/08/12 03:06:29;;;;;;;;;;;;;;;;;;1044596;28;19956;-77
2023/08/12 03:07:00;;;;;;;;;;;;;;;;;;1044398;28;19955;-78
2023/08/12 03:07:30;;;;;;;;;;;;;;;;;;1044506;28;19963;-80
2023/08/12 03:08:03;;;;;;;;;;;;;;;;;;1044561;28;20328;-77
2023/08/12 03:08:33;;;;;;;;;;;;;;;;;;1040442;28;19939;-79
2023/08/12 03:09:04;;;;;;;;;;;;;;;;;;1040178;28;20407;-76
2023/08/12 03:09:34;;;;;;;;;;;;;;;;;;1041030;28;19936;-78
2023/08/12 03:10:04;;;;;;;;;;;;;;;;;;1040314;28;19909;-77
2023/08/12 03:10:34;;;;;;;;;;;;;;;;;;1044813;28;20284;-78
2023/08/12 03:11:04;;;;;;;;;;;;;;;;;;1044301;28;19909;-77
2023/08/12 03:11:35;;;;;;;;;;;;;;;;;;1044661;28;19913;-77
2023/08/12 03:12:05;;;;;;;;;;;;;;;;;;1044369;28;19965;-78
2023/08/12 03:12:35;;;;;;;;;;;;;;;;;;1044437;28;19913;-78
2023/08/12 03:13:05;;;;;;;;;;;;;;;;;;1044373;28;20007;-77
2023/08/12 03:13:36;;;;;;;;;;;;;;;;;;1044263;28;19913;-78
2023/08/12 03:14:06;;;;;;;;;;;;;;;;;;1043836;28;19971;-78
2023/08/12 03:14:36;;;;;;;;;;;;;;;;;;1044624;28;19917;-78
2023/08/12 03:15:06;;;;;;;;;;;;;;;;;;1040204;28;20293;-77
2023/08/12 03:15:36;;;;;;;;;;;;;;;;;;1040510;28;19979;-78
2023/08/12 03:16:07;;;;;;;;;;;;;;;;;;1044266;28;19908;-76
2023/08/12 03:16:37;;;;;;;;;;;;;;;;;;1044754;28;19913;-76
2023/08/12 03:17:07;;;;;;;;;;;;;;;;;;1044346;28;19952;-77
2023/08/12 03:17:41;;;;;;;;;;;;;;;;;;1048782;28;19919;-78
2023/08/12 03:18:11;;;;;;;;;;;;;;;;;;1057394;22;19938;-77
2023/08/12 03:18:41;;;;;;;;;;;;;;;;;;1055711;22;20388;-76
2023/08/12 03:19:12;;;;;;;;;;;;;;;;;;1048964;28;20439;-77
2023/08/12 03:19:42;;;;;;;;;;;;;;;;;;1048874;28;19952;-76
2023/08/12 03:20:12;;;;;;;;;;;;;;;;;;1048837;28;19999;-77
2023/08/12 03:20:42;;;;;;;;;;;;;;;;;;1051009;28;19908;-77
2023/08/12 03:21:12;;;;;;;;;;;;;;;;;;1053191;28;19908;-76
2023/08/12 03:21:43;;;;;;;;;;;;;;;;;;1053592;28;20348;-76
2023/08/12 03:22:13;;;;;;;;;;;;;;;;;;1052968;28;19908;-77
2023/08/12 03:22:43;;;;;;;;;;;;;;;;;;1053032;28;19908;-76
2023/08/12 03:23:13;;;;;;;;;;;;;;;;;;1052954;28;19908;-77
2023/08/12 03:23:44;;;;;;;;;;;;;;;;;;1052924;28;20329;-76
2023/08/12 03:24:14;;;;;;;;;;;;;;;;;;1053001;28;19908;-77
2023/08/12 03:24:44;;;;;;;;;;;;;;;;;;1053003;28;19908;-78
2023/08/12 03:25:17;;;;;;;;;;;;;;;;;;1052983;28;19914;-76
2023/08/12 03:25:48;;;;;;;;;;;;;;;;;;1053100;28;20393;-76
2023/08/12 03:26:18;;;;;;;;;;;;;;;;;;1052963;28;19915;-74
2023/08/12 03:26:48;;;;;;;;;;;;;;;;;;1048464;28;20365;-77
2023/08/12 03:27:18;;;;;;;;;;;;;;;;;;1048486;28;19919;-77
2023/08/12 03:27:49;;;;;;;;;;;;;;;;;;1048473;28;19959;-76
2023/08/12 03:28:19;;;;;;;;;;;;;;;;;;1048440;28;19963;-76
2023/08/12 03:28:49;;;;;;;;;;;;;;;;;;1048608;28;19915;-75